Time;durP1;ratioP1;P1;durP2;ratioP2;P2;SDS_P1;SDS_P2;PMS_P1;PMS_P2;Temp;Humidity;BMP_temperature;BMP_pressure;BME280_temperature;BME280_humidity;BME280_pressure;Samples;Min_cycle;Max_cycle;Signal;HPM_P1;HPM_P2
2023/12/25 00:02:06;;;;;;;2.10;0.88;;;;;;;21.63;46.95;100414.63;4933882;28;97374;-71
2023/12/25 00:04:32;;;;;;;3.35;1.20;;;;;;;21.63;46.67;100414.63;4936512;28;96982;-71
2023/12/25 00:06:58;;;;;;;1.63;0.80;;;;;;;21.62;46.92;100401.41;4935943;28;96727;-71
2023/12/25 00:09:23;;;;;;;1.70;1.30;;;;;;;21.63;46.89;100424.38;4934654;28;97499;-71
2023/12/25 00:11:48;;;;;;;1.30;0.60;;;;;;;21.64;46.94;100420.78;4935383;28;97170;-71
2023/12/25 00:14:14;;;;;;;1.30;0.80;;;;;;;21.62;47.03;100415.56;4934699;28;102205;-71
2023/12/25 00:16:40;;;;;;;1.98;0.80;;;;;;;21.63;46.78;100427.88;4933158;28;112525;-71
2023/12/25 00:19:07;;;;;;;1.65;0.70;;;;;;;21.64;47.07;100431.38;4933515;28;97846;-71
2023/12/25 00:21:32;;;;;;;1.30;0.73;;;;;;;21.63;46.69;100425.22;4928062;28;97214;-71
2023/12/25 00:23:58;;;;;;;1.42;0.80;;;;;;;21.63;46.87;100432.34;4934106;28;96699;-71
2023/12/25 00:26:23;;;;;;;1.33;0.70;;;;;;;21.63;46.98;100416.41;4934903;28;97546;-71
2023/12/25 00:28:57;;;;;;;2.10;1.40;;;;;;;21.62;47.01;100402.28;4934376;28;96891;-71
2023/12/25 00:31:22;;;;;;;2.13;1.30;;;;;;;21.62;47.10;100407.59;4937619;28;98479;-71
2023/12/25 00:33:48;;;;;;;2.65;1.20;;;;;;;21.64;47.15;100405.72;4932096;28;105721;-71
2023/12/25 00:36:13;;;;;;;1.73;1.50;;;;;;;21.64;46.89;100421.66;4935549;28;104668;-71
2023/12/25 00:38:38;;;;;;;1.85;1.05;;;;;;;21.64;46.70;100402.19;4930283;28;99352;-71
2023/12/25 00:41:04;;;;;;;1.05;0.73;;;;;;;21.66;46.82;100403.03;4930963;28;96756;-71
2023/12/25 00:43:29;;;;;;;1.17;0.77;;;;;;;21.65;46.79;100407.44;4932281;28;96781;-71
2023/12/25 00:45:55;;;;;;;3.25;0.68;;;;;;;21.66;47.00;100414.50;4922152;28;108036;-70
2023/12/25 00:48:20;;;;;;;1.40;1.30;;;;;;;21.66;46.69;100413.63;4930520;28;97330;-71
2023/12/25 00:50:45;;;;;;;1.88;0.70;;;;;;;21.67;46.95;100415.34;4932252;28;113231;-71
2023/12/25 00:53:11;;;;;;;1.88;0.68;;;;;;;21.67;47.04;100424.19;4929470;28;96667;-71
2023/12/25 00:55:36;;;;;;;1.58;1.42;;;;;;;21.66;47.17;100429.56;4934120;28;109799;-71
2023/12/25 00:58:03;;;;;;;0.90;0.52;;;;;;;21.66;46.88;100430.41;4934405;28;97474;-71
2023/12/25 01:00:28;;;;;;;1.48;0.75;;;;;;;21.68;47.07;100433.00;4933333;28;99691;-71
2023/12/25 01:02:53;;;;;;;1.77;0.60;;;;;;;21.68;47.11;100438.31;4932412;28;106654;-71
2023/12/25 01:05:19;;;;;;;2.40;2.20;;;;;;;21.68;46.87;100427.72;4933131;28;97363;-71
2023/12/25 01:07:44;;;;;;;1.42;1.17;;;;;;;21.68;46.80;100444.50;4927568;28;97552;-71
2023/12/25 01:10:10;;;;;;;2.00;1.35;;;;;;;21.68;46.95;100443.63;4933500;28;97204;-71
2023/12/25 01:12:35;;;;;;;0.82;0.73;;;;;;;21.67;47.24;100440.13;4933734;28;112569;-71
2023/12/25 01:15:00;;;;;;;2.33;0.82;;;;;;;21.68;46.86;100441.84;4911798;28;113450;-71
2023/12/25 01:17:26;;;;;;;2.45;0.98;;;;;;;21.68;47.20;100446.28;4948145;28;96972;-71
2023/12/25 01:19:51;;;;;;;1.65;0.63;;;;;;;21.68;46.89;100435.66;4931865;28;98195;-71
2023/12/25 01:22:18;;;;;;;1.20;0.65;;;;;;;21.68;47.28;100444.50;4924166;28;104507;-71
2023/12/25 01:24:43;;;;;;;2.55;0.82;;;;;;;21.69;47.05;100445.34;4930274;28;96699;-71
2023/12/25 01:27:09;;;;;;;1.55;0.73;;;;;;;21.70;47.04;100449.75;4931310;28;97443;-71
2023/12/25 01:29:36;;;;;;;1.20;0.70;;;;;;;21.69;46.85;100461.28;4912610;28;100163;-71
2023/12/25 01:32:02;;;;;;;2.35;0.55;;;;;;;21.70;46.85;100446.22;4928562;28;96728;-71
2023/12/25 01:34:28;;;;;;;1.98;0.60;;;;;;;21.71;46.91;100453.25;4924443;28;96929;-71
2023/12/25 01:36:53;;;;;;;1.65;0.57;;;;;;;21.72;47.02;100453.19;4927660;28;126670;-71
2023/12/25 01:39:19;;;;;;;1.30;0.70;;;;;;;21.72;47.02;100455.84;4927937;28;97570;-71
2023/12/25 01:41:44;;;;;;;0.95;0.60;;;;;;;21.72;46.79;100461.16;4931713;28;96907;-71
2023/12/25 01:44:10;;;;;;;1.30;0.90;;;;;;;21.71;47.23;100459.44;4922321;28;97932;-71
2023/12/25 01:46:35;;;;;;;1.70;0.70;;;;;;;21.72;46.90;100465.59;4921662;28;98322;-71
2023/12/25 01:49:01;;;;;;;0.73;0.57;;;;;;;21.75;46.82;100460.19;4930392;28;97639;-71
2023/12/25 01:51:26;;;;;;;1.40;0.80;;;;;;;21.74;46.96;100454.00;4925327;28;97042;-71
2023/12/25 01:53:52;;;;;;;1.25;0.75;;;;;;;21.71;47.24;100454.13;4931117;28;97333;-71
2023/12/25 01:56:18;;;;;;;1.40;0.73;;;;;;;21.73;47.26;100462.00;4927995;28;97522;-71
2023/12/25 01:58:43;;;;;;;0.85;0.55;;;;;;;21.73;47.05;100472.63;4926609;28;98609;-71
2023/12/25 02:01:08;;;;;;;0.70;0.60;;;;;;;21.71;47.14;100471.84;4930404;28;96816;-72
2023/12/25 02:03:34;;;;;;;0.95;0.70;;;;;;;21.72;46.85;100466.47;4926881;28;96911;-71
2023/12/25 02:06:00;;;;;;;1.17;0.73;;;;;;;21.72;46.93;100466.47;4927740;28;98302;-71
2023/12/25 02:08:27;;;;;;;1.73;0.75;;;;;;;21.72;47.24;100466.47;4929681;28;99677;-71
2023/12/25 02:10:54;;;;;;;2.10;0.68;;;;;;;21.74;47.08;100451.34;4929203;28;96832;-71
2023/12/25 02:13:20;;;;;;;0.70;0.50;;;;;;;21.73;46.95;100473.50;4930314;28;97272;-71
2023/12/25 02:15:48;;;;;;;0.82;0.52;;;;;;;21.75;47.16;100473.47;4926266;28;99959;-71
2023/12/25 02:18:14;;;;;;;1.13;0.90;;;;;;;21.75;47.02;100484.94;4931702;28;98946;-71
2023/12/25 02:20:39;;;;;;;1.30;1.20;;;;;;;21.76;46.92;100476.03;4932007;28;96860;-71
2023/12/25 02:23:08;;;;;;;0.93;0.60;;;;;;;21.77;46.82;100471.59;4933787;28;97066;-71
2023/12/25 02:25:36;;;;;;;2.45;1.13;;;;;;;21.77;46.77;100472.47;4932338;28;96800;-72
2023/12/25 02:28:03;;;;;;;1.10;0.68;;;;;;;21.78;46.91;100483.94;4930495;28;96892;-71
2023/12/25 02:30:30;;;;;;;1.05;0.80;;;;;;;21.77;47.00;100485.72;4929956;28;97329;-71
2023/12/25 02:32:55;;;;;;;1.30;0.63;;;;;;;21.79;46.93;100490.97;4933643;28;97107;-71
2023/12/25 02:35:21;;;;;;;1.58;0.85;;;;;;;21.77;47.01;100485.72;4922650;28;97179;-71
2023/12/25 02:37:46;;;;;;;2.00;0.70;;;;;;;21.78;47.11;100486.59;4928413;28;96865;-71
2023/12/25 02:40:12;;;;;;;1.15;0.85;;;;;;;21.79;46.83;100498.94;4932045;28;97099;-71
2023/12/25 02:42:37;;;;;;;2.85;1.65;;;;;;;21.77;47.02;100480.41;4931484;28;97404;-71
2023/12/25 02:45:03;;;;;;;1.02;0.60;;;;;;;21.78;47.00;100487.47;4932432;28;98700;-71
2023/12/25 02:47:29;;;;;;;1.63;0.60;;;;;;;21.80;46.98;100490.03;4932721;28;97187;-71
2023/12/25 02:49:55;;;;;;;1.23;0.63;;;;;;;21.80;46.94;100492.69;4929729;28;97879;-71
2023/12/25 02:52:21;;;;;;;2.03;0.75;;;;;;;21.80;47.00;100508.63;4931010;28;96890;-71
2023/12/25 02:54:48;;;;;;;2.67;1.05;;;;;;;21.80;46.77;100490.94;4928067;28;99779;-71
2023/12/25 02:57:13;;;;;;;1.95;0.90;;;;;;;21.80;46.88;100493.59;4945914;28;127951;-71
2023/12/25 02:59:38;;;;;;;1.38;0.70;;;;;;;21.80;46.92;100490.94;4933148;28;96694;-71
2023/12/25 03:02:04;;;;;;;2.88;1.92;;;;;;;21.80;47.13;100485.63;4929737;28;97057;-71
2023/12/25 03:04:29;;;;;;;2.22;0.70;;;;;;;21.80;46.92;100496.25;4930027;28;97457;-71
2023/12/25 03:06:55;;;;;;;2.05;1.20;;;;;;;21.81;46.56;100491.78;4928182;28;97588;-71
2023/12/25 03:09:20;;;;;;;3.72;1.48;;;;;;;21.81;46.92;100489.13;4945412;28;96770;-71
2023/12/25 03:11:46;;;;;;;1.33;0.60;;;;;;;21.80;46.73;100482.06;4931609;28;98306;-71
2023/12/25 03:14:11;;;;;;;1.73;0.73;;;;;;;21.79;46.72;100497.16;4926782;28;99715;-71
2023/12/25 03:16:37;;;;;;;1.67;1.08;;;;;;;21.80;46.97;100488.28;4926609;28;100188;-71
2023/12/25 03:19:02;;;;;;;1.48;1.27;;;;;;;21.80;46.79;100477.66;4930960;28;97371;-71
2023/12/25 03:21:28;;;;;;;1.90;0.77;;;;;;;21.79;46.95;100483.88;4931009;28;96856;-73
2023/12/25 03:23:53;;;;;;;2.03;0.85;;;;;;;21.79;47.00;100491.84;4927362;28;99550;-71
2023/12/25 03:26:19;;;;;;;1.30;0.80;;;;;;;21.79;46.98;100481.22;4928542;28;99349;-71
2023/12/25 03:28:44;;;;;;;1.25;0.70;;;;;;;21.80;46.91;100493.59;4932790;28;96787;-72
2023/12/25 03:31:10;;;;;;;1.60;1.38;;;;;;;21.81;46.98;100507.72;4924537;28;96875;-71
2023/12/25 03:33:36;;;;;;;1.83;1.45;;;;;;;21.81;46.92;100510.38;4929093;28;99941;-71
2023/12/25 03:36:02;;;;;;;2.15;0.70;;;;;;;21.81;46.85;100513.88;4927991;28;97299;-71
2023/12/25 03:38:28;;;;;;;1.10;0.52;;;;;;;21.80;46.73;100512.16;4929316;28;96823;-71
2023/12/25 03:40:53;;;;;;;1.15;0.75;;;;;;;21.81;46.69;100511.22;4926486;28;110664;-72
2023/12/25 03:43:19;;;;;;;1.33;0.80;;;;;;;21.82;46.92;100515.63;4930290;28;106781;-71
2023/12/25 03:45:44;;;;;;;1.63;0.60;;;;;;;21.83;46.73;100521.78;4919473;28;97284;-71
2023/12/25 03:48:10;;;;;;;1.83;0.70;;;;;;;21.83;46.77;100529.75;4922819;28;96609;-70
2023/12/25 03:50:35;;;;;;;1.15;0.60;;;;;;;21.84;46.76;100518.22;4918887;28;96880;-71
2023/12/25 03:53:01;;;;;;;2.10;1.40;;;;;;;21.81;46.70;100524.50;4934154;28;126998;-71
2023/12/25 03:55:26;;;;;;;1.20;1.00;;;;;;;21.82;46.86;100531.56;4935043;28;98048;-71
2023/12/25 03:57:51;;;;;;;1.40;0.82;;;;;;;21.82;46.58;100520.06;4932208;28;112931;-71
2023/12/25 04:00:17;;;;;;;2.58;1.90;;;;;;;21.83;46.95;100525.28;4934666;28;110424;-71
2023/12/25 04:02:42;;;;;;;1.95;0.70;;;;;;;21.84;46.76;100523.53;4934634;28;97442;-71
2023/12/25 04:05:09;;;;;;;1.10;0.70;;;;;;;21.84;46.57;100529.69;4933488;28;97310;-72
2023/12/25 04:07:35;;;;;;;1.10;0.70;;;;;;;21.84;46.71;100532.34;4934849;28;97732;-71
2023/12/25 04:10:02;;;;;;;2.55;0.70;;;;;;;21.84;46.94;100520.88;4934245;28;96804;-71
2023/12/25 04:12:27;;;;;;;2.13;0.82;;;;;;;21.84;46.91;100515.56;4935433;28;97361;-71
2023/12/25 04:14:52;;;;;;;1.90;0.82;;;;;;;21.84;46.74;100539.47;4933494;28;99353;-72
2023/12/25 04:17:18;;;;;;;2.28;0.90;;;;;;;21.84;46.70;100528.84;4933576;28;110933;-71
2023/12/25 04:19:43;;;;;;;2.15;0.82;;;;;;;21.85;46.58;100527.91;4935750;28;96851;-71
2023/12/25 04:22:08;;;;;;;1.42;0.85;;;;;;;21.83;46.72;100513.81;4934741;28;97296;-70
2023/12/25 04:24:34;;;;;;;1.60;0.70;;;;;;;21.83;47.03;100508.50;4933107;28;98643;-71
2023/12/25 04:26:59;;;;;;;1.98;0.73;;;;;;;21.83;46.58;100509.38;4934985;28;97278;-71
2023/12/25 04:29:25;;;;;;;1.40;0.90;;;;;;;21.84;46.97;100513.75;4934786;28;112234;-71
2023/12/25 04:31:50;;;;;;;2.55;0.95;;;;;;;21.85;46.54;100511.97;4931954;28;110848;-70
2023/12/25 04:34:17;;;;;;;3.33;0.80;;;;;;;21.84;46.63;100503.16;4931985;28;97395;-71
2023/12/25 04:36:42;;;;;;;1.65;1.33;;;;;;;21.84;46.58;100513.75;4934176;28;97250;-71
2023/12/25 04:39:07;;;;;;;1.58;0.70;;;;;;;21.84;46.84;100500.50;4933999;28;97396;-71
2023/12/25 04:41:33;;;;;;;1.92;1.65;;;;;;;21.84;46.58;100511.09;4933488;28;99941;-71
2023/12/25 04:43:58;;;;;;;1.70;0.75;;;;;;;21.83;46.89;100517.34;4934217;28;97357;-71
2023/12/25 04:46:24;;;;;;;1.15;0.70;;;;;;;21.85;46.71;100517.28;4927535;28;111586;-71
2023/12/25 04:48:49;;;;;;;1.27;0.75;;;;;;;21.85;47.08;100520.81;4932033;28;96955;-71
2023/12/25 04:51:14;;;;;;;2.25;1.55;;;;;;;21.85;46.57;100518.16;4929231;28;99632;-71
2023/12/25 04:53:40;;;;;;;2.00;0.98;;;;;;;21.86;46.63;100527.84;4927296;28;97721;-71
2023/12/25 04:56:08;;;;;;;1.85;0.75;;;;;;;21.86;46.63;100514.56;4932638;28;96924;-71
2023/12/25 04:58:34;;;;;;;1.40;0.80;;;;;;;21.86;46.64;100498.63;4932797;28;96864;-72
2023/12/25 05:00:59;;;;;;;1.48;0.80;;;;;;;21.87;46.90;100520.72;4928850;28;99695;-71
2023/12/25 05:03:25;;;;;;;1.33;0.88;;;;;;;21.86;46.56;100517.22;4932484;28;99740;-71
2023/12/25 05:05:50;;;;;;;1.48;0.90;;;;;;;21.88;46.88;100497.72;4930825;28;112221;-71
2023/12/25 05:08:18;;;;;;;1.73;1.00;;;;;;;21.88;46.47;100493.25;4932936;28;96893;-71
2023/12/25 05:10:44;;;;;;;1.30;1.10;;;;;;;21.87;46.70;100496.84;4934229;28;97857;-71
2023/12/25 05:13:09;;;;;;;1.90;1.40;;;;;;;21.89;46.49;100499.44;4932272;28;97407;-71
2023/12/25 05:15:35;;;;;;;1.77;0.98;;;;;;;21.88;46.48;100519.81;4932576;28;96945;-72
2023/12/25 05:18:00;;;;;;;1.50;1.00;;;;;;;21.88;46.70;100505.69;4932906;28;96961;-71
2023/12/25 05:20:25;;;;;;;2.38;1.48;;;;;;;21.86;46.56;100500.44;4933474;28;117093;-72
2023/12/25 05:22:52;;;;;;;1.85;0.80;;;;;;;21.87;46.75;100504.78;4933580;28;97296;-71
2023/12/25 05:25:18;;;;;;;1.05;0.73;;;;;;;21.88;46.79;100509.19;4933327;28;96943;-71
2023/12/25 05:27:43;;;;;;;1.13;0.70;;;;;;;21.88;46.65;100514.50;4929563;28;98695;-71
2023/12/25 05:30:10;;;;;;;2.50;1.00;;;;;;;21.88;46.81;100511.84;4931525;28;97516;-71
2023/12/25 05:32:36;;;;;;;0.93;0.70;;;;;;;21.86;46.65;100513.72;4931223;28;97227;-71
2023/12/25 05:35:04;;;;;;;1.70;1.60;;;;;;;21.90;46.60;100512.66;4933822;28;96688;-71
2023/12/25 05:37:29;;;;;;;1.63;0.70;;;;;;;21.91;46.59;100514.38;4934055;28;96968;-71
2023/12/25 05:39:55;;;;;;;1.02;0.63;;;;;;;21.92;46.46;100512.59;4929201;28;96842;-71
2023/12/25 05:42:21;;;;;;;1.52;0.60;;;;;;;21.86;46.58;100524.31;4930500;28;96807;-71
2023/12/25 05:44:46;;;;;;;1.25;0.70;;;;;;;21.85;46.52;100525.25;4927915;28;97175;-71
2023/12/25 05:47:11;;;;;;;1.95;0.77;;;;;;;21.84;46.61;100521.72;4928858;28;98033;-71
2023/12/25 05:49:38;;;;;;;1.45;0.80;;;;;;;21.82;46.70;100520.94;4929256;28;106907;-70
2023/12/25 05:52:04;;;;;;;0.90;0.77;;;;;;;21.82;46.76;100520.06;4931028;28;96873;-71
2023/12/25 05:54:29;;;;;;;1.58;1.00;;;;;;;21.85;46.62;100527.91;4929254;28;96789;-71
2023/12/25 05:56:54;;;;;;;1.45;0.95;;;;;;;21.84;46.44;100516.41;4929511;28;97788;-71
2023/12/25 05:59:20;;;;;;;1.33;0.88;;;;;;;21.86;46.64;100517.22;4931468;28;111280;-71
2023/12/25 06:01:45;;;;;;;1.38;0.82;;;;;;;21.85;46.57;100522.59;4932701;28;126316;-71
2023/12/25 06:04:11;;;;;;;1.75;0.52;;;;;;;21.84;46.43;100529.69;4933447;28;96934;-71
2023/12/25 06:06:37;;;;;;;1.63;1.48;;;;;;;21.85;46.59;100525.25;4931704;28;97449;-71
2023/12/25 06:09:02;;;;;;;0.73;0.52;;;;;;;21.84;46.39;100532.34;4930401;28;98008;-70
2023/12/25 06:11:28;;;;;;;1.23;0.88;;;;;;;21.83;46.38;100532.41;4925301;28;97259;-71
2023/12/25 06:13:53;;;;;;;1.10;0.75;;;;;;;21.85;46.29;100525.25;4926071;28;112002;-71
2023/12/25 06:16:18;;;;;;;1.48;0.60;;;;;;;21.82;46.58;100530.69;4924992;28;108943;-71
2023/12/25 06:18:44;;;;;;;1.10;0.73;;;;;;;21.82;46.65;100542.16;4930356;28;118973;-71
2023/12/25 06:21:09;;;;;;;0.82;0.60;;;;;;;21.82;46.69;100536.84;4928862;28;97417;-71
2023/12/25 06:23:35;;;;;;;1.33;0.77;;;;;;;21.84;46.35;100534.16;4929902;28;112426;-71
2023/12/25 06:26:00;;;;;;;0.82;0.60;;;;;;;21.82;46.67;100531.56;4932054;28;97386;-71
2023/12/25 06:28:25;;;;;;;0.95;0.73;;;;;;;21.83;46.30;100533.25;4933519;28;98091;-71
2023/12/25 06:30:51;;;;;;;1.48;1.17;;;;;;;21.82;46.45;100533.34;4929322;28;115265;-71
2023/12/25 06:33:18;;;;;;;1.00;0.70;;;;;;;21.83;46.48;100537.72;4928526;28;96965;-70
2023/12/25 06:35:43;;;;;;;1.20;0.70;;;;;;;21.82;46.30;100542.16;4931766;28;96948;-71
2023/12/25 06:38:09;;;;;;;1.52;0.85;;;;;;;21.81;46.72;100551.03;4933310;28;97586;-70
2023/12/25 06:40:34;;;;;;;0.80;0.47;;;;;;;21.82;46.60;100552.78;4929626;28;97199;-71
2023/12/25 06:42:59;;;;;;;1.30;0.52;;;;;;;21.82;46.50;100554.59;4927960;28;112046;-71
2023/12/25 06:45:25;;;;;;;0.88;0.60;;;;;;;21.80;46.65;100546.69;4927138;28;112426;-71
2023/12/25 06:47:52;;;;;;;1.63;1.40;;;;;;;21.80;46.73;100552.00;4927722;28;97188;-71
2023/12/25 06:50:18;;;;;;;1.23;0.60;;;;;;;21.82;46.47;100551.94;4941518;28;96796;-71
2023/12/25 06:52:43;;;;;;;1.10;0.82;;;;;;;21.81;46.49;100561.66;4930775;28;96778;-71
2023/12/25 06:55:09;;;;;;;1.63;1.35;;;;;;;21.81;46.64;100561.66;4933260;28;97165;-71
2023/12/25 06:57:35;;;;;;;1.38;0.70;;;;;;;21.81;46.67;100561.66;4933180;28;97533;-71
2023/12/25 07:00:00;;;;;;;1.65;0.75;;;;;;;21.82;46.50;100573.16;4925435;28;98116;-71
2023/12/25 07:02:25;;;;;;;1.38;0.63;;;;;;;21.82;46.63;100573.16;4926452;28;110984;-71
2023/12/25 07:04:51;;;;;;;0.50;0.43;;;;;;;21.82;46.42;100571.38;4929712;28;96847;-71
2023/12/25 07:07:17;;;;;;;0.82;0.47;;;;;;;21.80;46.48;100578.53;4929705;28;97870;-71
2023/12/25 07:09:43;;;;;;;2.65;1.35;;;;;;;21.81;46.58;100576.72;4925978;28;97193;-71
2023/12/25 07:12:09;;;;;;;3.13;0.52;;;;;;;21.81;46.67;100572.28;4927410;28;96699;-71
2023/12/25 07:14:34;;;;;;;1.48;0.50;;;;;;;21.81;46.70;100574.94;4929092;28;96893;-72
2023/12/25 07:17:00;;;;;;;1.08;0.57;;;;;;;21.83;46.57;100561.59;4930663;28;109387;-71
2023/12/25 07:19:25;;;;;;;0.88;0.47;;;;;;;21.82;46.62;100566.06;4928411;28;97416;-71
2023/12/25 07:21:50;;;;;;;0.95;0.40;;;;;;;21.80;46.48;100570.56;4929701;28;96764;-71
2023/12/25 07:24:16;;;;;;;0.85;0.57;;;;;;;21.80;46.48;100573.22;4930522;28;110131;-71
2023/12/25 07:26:42;;;;;;;0.70;0.50;;;;;;;21.82;46.66;100584.66;4928590;28;125531;-71
2023/12/25 07:29:07;;;;;;;1.70;1.42;;;;;;;21.81;46.46;100582.03;4926780;28;100570;-71
2023/12/25 07:31:33;;;;;;;1.00;0.50;;;;;;;21.80;46.37;100581.19;4931455;28;97307;-71
2023/12/25 07:33:58;;;;;;;0.77;0.38;;;;;;;21.80;46.24;100586.50;4927366;28;96852;-71
2023/12/25 07:36:23;;;;;;;2.00;0.50;;;;;;;21.81;46.58;100592.66;4930528;28;96876;-71
2023/12/25 07:38:49;;;;;;;2.42;1.10;;;;;;;21.78;46.44;100588.34;4931402;28;126945;-72
2023/12/25 07:41:14;;;;;;;0.52;0.40;;;;;;;21.78;46.48;100595.44;4929090;28;111933;-71
2023/12/25 07:43:39;;;;;;;1.02;0.52;;;;;;;21.79;46.71;100599.81;4927640;28;96989;-71
2023/12/25 07:46:08;;;;;;;0.68;0.40;;;;;;;21.80;46.44;100598.88;4931457;28;96889;-71
2023/12/25 07:48:34;;;;;;;;;;;;;;;21.80;46.33;100601.53;4933793;28;126615;-71
2023/12/25 07:50:59;;;;;;;0.95;0.43;;;;;;;21.82;46.32;100605.03;4934037;28;96840;-71
2023/12/25 07:53:25;;;;;;;0.68;0.30;;;;;;;21.81;46.57;100600.63;4938616;28;111315;-71
2023/12/25 07:55:50;;;;;;;1.67;0.60;;;;;;;21.79;46.52;100603.34;4928255;28;97542;-71
2023/12/25 07:58:16;;;;;;;0.85;0.47;;;;;;;21.77;46.54;100605.19;4930934;28;97264;-71
2023/12/25 08:00:44;;;;;;;1.45;0.30;;;;;;;21.77;46.52;100610.50;4933763;28;97330;-71
2023/12/25 08:03:11;;;;;;;0.82;0.40;;;;;;;21.79;46.18;100615.75;4934590;28;96859;-71
2023/12/25 08:05:36;;;;;;;1.25;0.40;;;;;;;21.75;46.44;100625.63;4929681;28;98312;-71
2023/12/25 08:08:02;;;;;;;1.40;0.40;;;;;;;21.81;46.41;100622.72;4930750;28;97667;-72
2023/12/25 08:10:28;;;;;;;0.65;0.52;;;;;;;21.84;46.13;100627.06;4936850;28;97880;-72
2023/12/25 08:12:54;;;;;;;1.83;1.20;;;;;;;21.84;46.74;100630.59;4945280;28;97472;-71
2023/12/25 08:15:20;;;;;;;2.03;0.50;;;;;;;21.90;46.47;100616.19;4935250;28;97397;-71
2023/12/25 08:17:45;;;;;;;1.92;0.98;;;;;;;21.92;46.52;100616.16;4928179;28;127559;-71
2023/12/25 08:20:10;;;;;;;2.38;1.42;;;;;;;21.94;46.70;100624.91;4929704;28;100628;-70
2023/12/25 08:22:36;;;;;;;1.50;0.50;;;;;;;21.99;46.26;100637.09;4933719;28;96931;-70
2023/12/25 08:25:03;;;;;;;1.05;0.60;;;;;;;22.01;46.30;100639.69;4931125;28;127434;-70
2023/12/25 08:27:28;;;;;;;1.02;0.50;;;;;;;22.02;46.24;100638.78;4932280;28;97112;-70
2023/12/25 08:29:54;;;;;;;1.40;1.08;;;;;;;22.00;46.62;100633.53;4930632;28;98233;-71
2023/12/25 08:32:20;;;;;;;1.38;0.47;;;;;;;22.01;46.34;100621.09;4935761;28;98803;-70
2023/12/25 08:34:45;;;;;;;1.65;0.40;;;;;;;22.01;46.20;100632.63;4933396;28;96916;-71
2023/12/25 08:37:10;;;;;;;1.67;0.43;;;;;;;21.98;46.33;100643.34;4931244;28;97286;-71
2023/12/25 08:39:36;;;;;;;1.02;0.93;;;;;;;21.97;46.45;100651.38;4927931;28;111681;-71
2023/12/25 08:42:03;;;;;;;2.80;0.90;;;;;;;21.96;46.79;100645.19;4924944;28;109491;-70
2023/12/25 08:44:28;;;;;;;0.68;0.38;;;;;;;21.94;46.59;100647.03;4933080;28;97435;-70
2023/12/25 08:46:54;;;;;;;0.68;0.40;;;;;;;21.92;46.17;100643.56;4934819;28;97900;-70
2023/12/25 08:49:19;;;;;;;2.33;1.30;;;;;;;21.90;46.59;100650.72;4924884;28;96643;-71
2023/12/25 08:51:44;;;;;;;2.40;0.70;;;;;;;21.90;46.85;100652.53;4933972;28;112516;-71
2023/12/25 08:54:10;;;;;;;3.45;0.75;;;;;;;21.89;46.67;100653.44;4933843;28;127304;-71
2023/12/25 08:56:35;;;;;;;1.98;1.17;;;;;;;21.89;46.63;100661.41;4933443;28;98704;-71
2023/12/25 08:59:01;;;;;;;2.85;1.15;;;;;;;21.87;46.53;100658.78;4935432;28;96693;-71
2023/12/25 09:01:29;;;;;;;2.85;1.15;;;;;;;21.87;46.93;100656.13;4934624;28;96852;-71
2023/12/25 09:03:55;;;;;;;3.10;0.63;;;;;;;21.86;46.75;100657.94;4930092;28;122795;-71
2023/12/25 09:06:20;;;;;;;4.47;0.85;;;;;;;21.86;46.75;100660.59;4933795;28;119125;-71
2023/12/25 09:08:46;;;;;;;6.20;0.65;;;;;;;21.89;47.33;100656.09;4934913;28;96823;-71
2023/12/25 09:11:11;;;;;;;3.63;0.57;;;;;;;21.79;47.26;100659.09;4924158;28;96896;-71
2023/12/25 09:13:37;;;;;;;2.55;0.50;;;;;;;21.76;47.36;100663.66;4932614;28;97168;-71
2023/12/25 09:16:02;;;;;;;1.90;0.40;;;;;;;21.77;47.30;100671.56;4928530;28;97345;-70
2023/12/25 09:18:29;;;;;;;3.53;0.77;;;;;;;21.77;47.12;100668.91;4930231;28;96725;-70
2023/12/25 09:20:56;;;;;;;2.40;0.60;;;;;;;21.75;47.30;100680.50;4932604;28;96859;-70
2023/12/25 09:23:21;;;;;;;1.23;0.95;;;;;;;21.75;47.29;100678.72;4922213;28;96746;-71
2023/12/25 09:25:47;;;;;;;1.27;0.52;;;;;;;21.72;47.29;100685.94;4930288;28;96988;-70
2023/12/25 09:28:12;;;;;;;2.47;0.73;;;;;;;21.70;47.04;100691.28;4933044;28;97227;-70
2023/12/25 09:30:39;;;;;;;2.45;0.63;;;;;;;21.71;47.19;100689.50;4925638;28;96683;-70
2023/12/25 09:33:04;;;;;;;2.20;0.60;;;;;;;21.71;47.26;100703.66;4926240;28;96923;-71
2023/12/25 09:35:30;;;;;;;1.58;0.60;;;;;;;21.71;47.24;100711.63;4923401;28;125147;-70
2023/12/25 09:37:56;;;;;;;1.20;0.80;;;;;;;21.72;47.16;100718.63;4925550;28;97001;-69
2023/12/25 09:40:21;;;;;;;1.48;0.50;;;;;;;21.72;47.09;100726.59;4928585;28;97367;-70
2023/12/25 09:42:49;;;;;;;7.88;1.13;;;;;;;21.66;46.57;100721.53;4932923;28;97214;-71
2023/12/25 09:45:16;;;;;;;2.90;0.60;;;;;;;21.63;47.10;100719.84;4928251;28;97265;-70
2023/12/25 09:47:41;;;;;;;3.97;0.70;;;;;;;21.54;47.60;100716.66;4926515;28;96675;-71
2023/12/25 09:50:07;;;;;;;1.90;0.60;;;;;;;21.57;47.51;100719.16;4931485;28;96789;-71
2023/12/25 09:52:32;;;;;;;3.63;0.50;;;;;;;21.59;47.31;100723.53;4930706;28;98090;-71
2023/12/25 09:54:58;;;;;;;1.77;0.50;;;;;;;21.57;47.42;100712.09;4929934;28;98859;-69
2023/12/25 09:57:26;;;;;;;0.90;0.40;;;;;;;21.56;47.46;100715.66;4919171;28;112335;-72
2023/12/25 09:59:52;;;;;;;3.28;1.38;;;;;;;21.58;47.38;100711.16;4932848;28;96883;-71
2023/12/25 10:02:21;;;;;;;1.63;0.60;;;;;;;21.59;47.20;100710.25;4930635;28;119572;-70
2023/12/25 10:04:48;;;;;;;1.40;0.73;;;;;;;21.62;47.31;100711.91;4930334;28;97241;-71
2023/12/25 10:07:13;;;;;;;5.57;0.95;;;;;;;21.63;47.62;100697.75;4926066;28;97364;-71
2023/12/25 10:09:39;;;;;;;4.75;0.88;;;;;;;21.64;47.51;100699.44;4927366;28;96979;-70
2023/12/25 10:12:05;;;;;;;2.28;0.68;;;;;;;21.65;47.62;100702.06;4928074;28;97837;-70
2023/12/25 10:14:31;;;;;;;2.70;0.60;;;;;;;21.68;47.51;100687.81;4932319;28;96866;-70
2023/12/25 10:16:58;;;;;;;3.78;0.85;;;;;;;21.67;47.66;100694.94;4926051;28;110807;-71
2023/12/25 10:19:24;;;;;;;2.47;0.73;;;;;;;21.69;47.79;100700.16;4930566;28;96859;-71
2023/12/25 10:21:52;;;;;;;8.25;1.17;;;;;;;21.72;48.15;100707.16;4933194;28;97492;-70
2023/12/25 10:24:17;;;;;;;5.00;1.30;;;;;;;21.72;47.99;100710.69;4932260;28;97336;-71
2023/12/25 10:26:46;;;;;;;4.45;0.90;;;;;;;21.72;48.16;100710.69;4926558;28;112985;-70
2023/12/25 10:29:11;;;;;;;5.53;0.90;;;;;;;21.70;48.76;100716.97;4930856;28;97442;-71
2023/12/25 10:31:38;;;;;;;5.13;1.80;;;;;;;21.68;49.14;100720.53;4926009;28;97533;-71
2023/12/25 10:34:04;;;;;;;4.95;1.83;;;;;;;21.73;49.89;100724.81;4920306;28;97799;-71
2023/12/25 10:36:29;;;;;;;5.85;1.23;;;;;;;21.75;50.02;100723.00;4925375;28;96854;-70
2023/12/25 10:38:55;;;;;;;6.35;1.42;;;;;;;21.76;49.88;100730.00;4932439;28;97386;-70
2023/12/25 10:41:25;;;;;;;4.30;1.60;;;;;;;21.79;50.29;100724.59;4932077;28;126868;-69
2023/12/25 10:43:52;;;;;;;3.50;0.90;;;;;;;21.79;50.13;100728.13;4921762;28;99227;-71
2023/12/25 10:46:20;;;;;;;7.47;1.70;;;;;;;21.79;50.11;100728.13;4923400;28;96872;-69
2023/12/25 10:48:49;;;;;;;6.63;1.40;;;;;;;21.78;50.08;100729.06;4922783;28;96897;-69
2023/12/25 10:51:31;;;;;;;5.40;1.40;;;;;;;21.77;50.16;100719.34;4926852;28;97497;-70
2023/12/25 10:54:04;;;;;;;4.90;1.10;;;;;;;21.77;49.83;100698.09;4945943;28;97391;-72
2023/12/25 10:56:39;;;;;;;4.35;1.30;;;;;;;21.77;50.09;100683.97;4925478;28;96673;-72
2023/12/25 10:59:16;;;;;;;3.30;1.05;;;;;;;21.79;49.73;100682.97;4927627;28;96875;-71
2023/12/25 11:01:48;;;;;;;5.22;1.13;;;;;;;21.80;50.08;100694.47;4934118;28;97430;-70
2023/12/25 11:04:17;;;;;;;3.88;1.52;;;;;;;21.78;49.91;100686.56;4935180;28;97316;-70
2023/12/25 11:06:44;;;;;;;4.38;1.02;;;;;;;21.80;50.19;100690.03;4933037;28;96655;-70
2023/12/25 11:09:17;;;;;;;4.97;1.23;;;;;;;21.80;50.51;100691.81;4933739;28;96852;-70
2023/12/25 11:11:44;;;;;;;5.63;1.20;;;;;;;21.77;50.22;100699.91;4927972;28;100617;-69
2023/12/25 11:14:11;;;;;;;4.78;1.73;;;;;;;21.76;50.22;100712.28;4924892;28;99150;-69
2023/12/25 11:16:37;;;;;;;4.32;1.00;;;;;;;21.74;49.95;100722.09;4924564;28;96824;-70
2023/12/25 11:19:04;;;;;;;3.78;1.13;;;;;;;21.72;50.26;100731.06;4926351;28;97062;-69